createdAt,value
2023-03-22T00:00:26.128Z,3.13
2023-03-22T00:04:26.107Z,3.12
2023-03-22T00:08:26.055Z,2.76
2023-03-22T00:12:26.038Z,2.74
2023-03-22T00:16:26.059Z,3.19
2023-03-22T00:20:26.024Z,2.64
2023-03-22T00:24:25.940Z,2.76
2023-03-22T00:28:25.857Z,2.88
2023-03-22T00:32:25.849Z,2.70
2023-03-22T00:36:25.911Z,3.45
2023-03-22T00:40:25.892Z,3.40
2023-03-22T00:44:25.821Z,3.62
2023-03-22T00:48:25.883Z,2.78
2023-03-22T00:52:25.772Z,2.17
2023-03-22T00:56:25.773Z,3.26
2023-03-22T01:00:25.688Z,2.79
2023-03-22T01:04:25.637Z,3.05
2023-03-22T01:08:25.638Z,2.98
2023-03-22T01:12:25.571Z,3.79
2023-03-22T01:16:25.575Z,3.21
2023-03-22T01:20:25.508Z,3.24
2023-03-22T01:24:25.490Z,3.30
2023-03-22T01:28:27.189Z,2.96
2023-03-22T01:32:25.796Z,3.04
2023-03-22T01:36:25.876Z,2.84
2023-03-22T01:40:26.030Z,2.79
2023-03-22T01:44:25.998Z,2.95
2023-03-22T01:48:26.002Z,3.12
2023-03-22T01:52:25.955Z,3.85
2023-03-22T01:56:25.908Z,3.42
2023-03-22T02:00:25.890Z,3.03
2023-03-22T02:04:25.813Z,3.21
2023-03-22T02:08:25.802Z,3.30
2023-03-22T02:12:25.769Z,3.19
2023-03-22T02:16:25.710Z,3.12
2023-03-22T02:20:25.693Z,3.09
2023-03-22T02:24:25.668Z,3.86
2023-03-22T02:28:25.629Z,3.14
2023-03-22T02:32:25.610Z,3.19
2023-03-22T02:36:25.552Z,3.68
2023-03-22T02:40:25.522Z,2.95
2023-03-22T02:44:25.515Z,2.88
2023-03-22T02:48:25.558Z,3.38
2023-03-22T02:52:25.415Z,2.63
2023-03-22T02:56:25.360Z,3.20
2023-03-22T03:00:25.337Z,2.90
2023-03-22T03:04:25.302Z,2.77
2023-03-22T03:08:25.283Z,2.81
2023-03-22T03:12:25.262Z,2.73
2023-03-22T03:17:57.050Z,2.73
2023-03-22T03:21:57.029Z,2.85
2023-03-22T03:25:57.031Z,2.85
2023-03-22T03:29:56.948Z,2.35
2023-03-22T03:33:56.929Z,2.84
2023-03-22T03:37:56.869Z,2.41
2023-03-22T03:41:56.905Z,2.71
2023-03-22T03:45:56.984Z,2.71
2023-03-22T03:49:56.792Z,3.34
2023-03-22T03:53:56.765Z,3.43
2023-03-22T03:57:56.717Z,3.01
2023-03-22T04:01:56.694Z,3.05
2023-03-22T04:05:56.617Z,2.89
2023-03-22T04:09:56.576Z,2.69
2023-03-22T04:13:56.581Z,2.87
2023-03-22T04:17:56.514Z,2.83
2023-03-22T04:21:56.612Z,2.35
2023-03-22T04:25:56.701Z,2.50
2023-03-22T04:29:56.801Z,3.08
2023-03-22T04:33:56.865Z,2.78
2023-03-22T04:37:56.970Z,2.70
2023-03-22T04:41:57.036Z,2.66
2023-03-22T04:45:57.195Z,2.46
2023-03-22T04:49:57.241Z,2.86
2023-03-22T04:53:57.338Z,2.57
2023-03-22T04:57:57.429Z,2.78
2023-03-22T05:01:57.549Z,2.65
2023-03-22T05:05:57.610Z,2.80
2023-03-22T05:09:57.670Z,2.54
2023-03-22T05:13:57.800Z,2.60
2023-03-22T05:17:57.879Z,2.29
2023-03-22T05:21:58.240Z,2.74
2023-03-22T05:25:58.150Z,2.87
2023-03-22T05:29:58.326Z,2.51
2023-03-22T05:33:58.404Z,2.96
2023-03-22T05:37:58.543Z,2.44
2023-03-22T05:41:58.677Z,2.45
2023-03-22T05:45:58.833Z,2.67
2023-03-22T05:49:58.941Z,2.55
2023-03-22T05:53:59.077Z,2.64
2023-03-22T05:57:59.223Z,2.16
2023-03-22T06:01:59.457Z,2.95
2023-03-22T06:05:59.515Z,2.10
2023-03-22T06:09:59.691Z,2.64
2023-03-22T06:13:59.818Z,2.81
2023-03-22T06:17:59.995Z,2.40
2023-03-22T06:22:00.139Z,2.44
2023-03-22T06:26:00.285Z,2.61
2023-03-22T06:30:00.475Z,2.23
2023-03-22T06:34:00.611Z,2.34
2023-03-22T06:38:00.870Z,2.28
2023-03-22T06:42:01.374Z,2.62
2023-03-22T06:46:01.063Z,2.33
2023-03-22T06:50:01.398Z,2.68
2023-03-22T06:54:01.363Z,2.81
2023-03-22T06:58:01.396Z,2.55
2023-03-22T07:02:00.967Z,3.28
2023-03-22T07:06:00.946Z,2.92
2023-03-22T07:10:01.368Z,3.36
2023-03-22T07:14:00.858Z,3.22
2023-03-22T07:18:00.802Z,3.09
2023-03-22T07:22:00.803Z,3.06
2023-03-22T07:26:00.879Z,2.92
2023-03-22T07:30:00.712Z,3.17
2023-03-22T07:34:00.882Z,3.49
2023-03-22T07:38:00.636Z,3.21
2023-03-22T07:42:00.886Z,2.85
2023-03-22T07:46:00.897Z,2.50
2023-03-22T07:50:00.917Z,3.26
2023-03-22T07:54:00.712Z,3.46
2023-03-22T07:58:00.764Z,3.69
2023-03-22T08:02:01.013Z,3.64
2023-03-22T08:06:01.427Z,3.04
2023-03-22T08:10:01.108Z,2.71
2023-03-22T08:14:01.116Z,2.48
2023-03-22T08:18:01.444Z,2.59
2023-03-22T08:22:01.040Z,3.39
2023-03-22T08:26:00.962Z,2.83
2023-03-22T08:30:00.941Z,3.17
2023-03-22T08:34:00.921Z,2.66
2023-03-22T08:38:00.934Z,2.48
2023-03-22T08:42:00.937Z,2.72
2023-03-22T08:46:00.953Z,2.64
2023-03-22T08:50:00.756Z,2.82
2023-03-22T08:54:00.949Z,2.74
2023-03-22T08:58:00.909Z,3.61
2023-03-22T09:02:00.773Z,3.07
2023-03-22T09:06:00.607Z,2.88
2023-03-22T09:10:00.768Z,2.70
2023-03-22T09:14:00.947Z,2.41
2023-03-22T09:18:01.068Z,3.29
2023-03-22T09:22:01.164Z,2.68
2023-03-22T09:26:01.358Z,2.21
2023-03-22T09:30:01.936Z,2.75
2023-03-22T09:34:01.590Z,2.22
2023-03-22T09:38:01.950Z,2.47
2023-03-22T09:42:01.905Z,2.61
2023-03-22T09:46:02.465Z,2.62
2023-03-22T09:50:02.460Z,2.63
2023-03-22T09:54:02.420Z,2.98
2023-03-22T09:58:02.233Z,2.65
2023-03-22T10:02:02.529Z,2.93
2023-03-22T10:06:02.411Z,3.08
2023-03-22T10:10:02.477Z,3.03
2023-03-22T10:14:02.549Z,2.47
2023-03-22T10:18:02.965Z,2.50
2023-03-22T10:22:02.704Z,2.62
2023-03-22T10:26:02.773Z,3.13
2023-03-22T10:30:03.533Z,2.49
2023-03-22T10:34:02.916Z,2.78
2023-03-22T10:38:02.959Z,2.81
2023-03-22T10:42:03.472Z,2.51
2023-03-22T10:46:03.484Z,2.96
2023-03-22T10:50:03.452Z,3.40
2023-03-22T10:54:03.102Z,3.91
2023-03-22T10:58:03.470Z,3.99
2023-03-22T11:02:03.208Z,2.97
2023-03-22T11:06:03.100Z,3.68
2023-03-22T11:10:03.127Z,2.74
2023-03-22T11:14:03.207Z,3.39
2023-03-22T11:18:03.416Z,3.26
2023-03-22T11:22:03.370Z,2.72
2023-03-22T11:26:03.304Z,3.02
2023-03-22T11:30:03.289Z,3.07
2023-03-22T11:34:03.274Z,3.01
2023-03-22T11:38:03.456Z,2.96
2023-03-22T11:42:03.470Z,3.82
2023-03-22T11:46:03.238Z,4.24
2023-03-22T11:50:03.483Z,3.48
2023-03-22T11:54:03.130Z,3.92
2023-03-22T11:58:03.066Z,3.82
2023-03-22T12:02:04.005Z,4.16
2023-03-22T12:06:03.364Z,4.04
2023-03-22T12:10:03.427Z,4.25
2023-03-22T12:14:03.473Z,3.51
2023-03-22T12:18:04.933Z,4.25
2023-03-22T12:22:03.546Z,4.05
2023-03-22T12:26:03.567Z,4.14
2023-03-22T12:30:03.983Z,5.08
2023-03-22T12:34:04.027Z,4.63
2023-03-22T12:38:04.085Z,5.06
2023-03-22T12:42:04.163Z,5.15
2023-03-22T12:46:04.160Z,4.87
2023-03-22T12:50:04.143Z,5.73
2023-03-22T12:54:04.166Z,6.58
2023-03-22T12:58:04.159Z,6.85
2023-03-22T13:02:04.171Z,6.89
2023-03-22T13:06:04.155Z,6.78
2023-03-22T13:10:04.129Z,7.05
2023-03-22T13:14:04.116Z,5.56
2023-03-22T13:18:04.219Z,6.67
2023-03-22T13:22:04.302Z,5.42
2023-03-22T13:26:04.259Z,4.82
2023-03-22T13:30:04.217Z,4.15
2023-03-22T13:34:04.208Z,4.78
2023-03-22T13:38:04.139Z,5.72
2023-03-22T13:42:04.129Z,4.18
2023-03-22T13:46:04.092Z,4.00
2023-03-22T13:50:06.109Z,4.17
2023-03-22T13:54:03.985Z,3.06
2023-03-22T13:58:03.936Z,3.45
2023-03-22T14:02:03.960Z,3.39
2023-03-22T14:06:03.869Z,2.92
2023-03-22T14:10:03.863Z,2.50
2023-03-22T14:14:03.810Z,2.70
2023-03-22T14:18:03.855Z,3.00
